• Join FlightAware (Why Join?)
  • Login
  • US Flag 
02:39PM EDT


 

Airport Tracker/Info


-or-


 

Live Flight TrackerFlight Track Log ✈ CPZ5714 ✈ 23-Jun-2013 ✈ KMSP - KALB

Flight Track Log - Related Links

Times and Time Zones

All times are in EDT time to prevent confusion due to time zone crossing. See the CPZ5714 flight status page for this flight to view local times or setup timezone preferences in your user account.

Time Position Orientation Groundspeed Altitude Reporting Facility
EDT Latitude Longitude Course Direction KTS MPH feet Rate Location/Type
08:46PM 44.9000 -93.2333 70° East 165 190 1,500  Level Minneapolis TRACON
08:47PM 44.9500 -93.2667 335° Northwest 214 246 2,900 1,560 Climbing Minneapolis TRACON
08:48PM 45.0219 -93.2858 349° North 254 292 5,100 2,100 Climbing Minneapolis Center
08:49PM 45.0341 -92.6393 68° East  Level FlightAware Approximate
08:49PM 45.0853 -93.2328 31° Northeast 305 351 7,600  Level Minneapolis Center
08:50PM 45.0755 -92.4943 68° East  Level FlightAware Approximate
08:50PM 45.1167 -93.0875 73° East 323 372 10,500  Level Minneapolis Center
08:51PM 45.1093 -92.3463 70° East  Level FlightAware Approximate
08:51PM 45.1567 -92.9194 71° East 382 440 12,100  Level Minneapolis Center
08:52PM 45.1914 -92.7717 72° East 395 455 14,400 1,800 Climbing Minneapolis Center
08:53PM 45.2192 -92.6519 72° East 399 459 15,800 1,620 Climbing Minneapolis Center
08:54PM 45.2619 -92.4636 72° East 418 481 17,800 1,680 Climbing Minneapolis Center
08:55PM 45.2919 -92.3381 71° East 419 482 19,300 1,740 Climbing Minneapolis Center
08:56PM 45.3242 -92.1361 77° East 437 503 21,400 1,620 Climbing Minneapolis Center
08:57PM 45.3372 -91.9625 84° East 441 507 22,700 1,260 Climbing Minneapolis Center
08:59PM 45.3225 -91.7478 95° East 455 524 24,300 1,380 Climbing Minneapolis Center
09:00PM 45.3075 -91.5292 95° East 463 533 25,900 1,380 Climbing Minneapolis Center
09:01PM 45.2953 -91.3458 95° East 466 536 27,200 1,140 Climbing Minneapolis Center
09:02PM 45.2847 -91.1739 95° East 469 540 28,300 900 Climbing Minneapolis Center
09:03PM 45.2692 -90.9533 96° East 468 539 29,100 960 Climbing Minneapolis Center
09:04PM 45.2572 -90.7653 95° East 477 549 30,300 1,140 Climbing Minneapolis Center
09:05PM 45.2436 -90.5811 96° East 473 544 31,500 960 Climbing Minneapolis Center
09:06PM 45.2314 -90.4011 95° East 464 534 32,300 720 Climbing Minneapolis Center
09:07PM 45.2181 -90.2211 96° East 462 532 33,100 780 Climbing Minneapolis Center
09:08PM 45.2036 -90.0431 97° East 458 527 33,900 780 Climbing Minneapolis Center
09:09PM 45.1897 -89.8653 96° East 456 525 34,700 480 Climbing Minneapolis Center
09:10PM 45.1731 -89.6525 96° East 456 525 35,000 120 Climbing Minneapolis Center
09:11PM 45.1581 -89.4781 97° East 451 519 35,000  Level Minneapolis Center
09:12PM 45.1444 -89.3000 96° East 456 525 35,000  Level Minneapolis Center
09:13PM 45.1292 -89.1247 97° East 453 521 35,000  Level Minneapolis Center
09:14PM 45.1144 -88.9461 97° East 456 525 35,000  Level Minneapolis Center
09:15PM 45.0989 -88.7689 97° East 456 525 35,000  Level Minneapolis Center
09:16PM 45.0797 -88.5681 98° East 456 525 35,000  Level Minneapolis Center
09:17PM 45.0611 -88.3539 97° East 459 528 35,000  Level Minneapolis Center
09:18PM 45.0453 -88.1750 97° East 458 527 35,000  Level Minneapolis Center
09:19PM 45.0292 -87.9989 97° East 455 524 35,000  Level Minneapolis Center
09:20PM 45.0075 -87.7878 98° East 453 521 35,000  Level Minneapolis Center
09:21PM 44.9906 -87.6106 98° East 455 524 35,000  Level Minneapolis Center
09:23PM 44.9739 -87.4364 98° East 451 519 35,000  Level Minneapolis Center
09:24PM 44.9567 -87.2642 98° East 446 513 35,000  Level Minneapolis Center
09:25PM 44.9383 -87.0883 98° East 451 519 35,000  Level Minneapolis Center
09:26PM 44.9203 -86.9156 98° East 446 513 35,000  Level Minneapolis Center
09:27PM 44.9022 -86.7447 98° East 446 513 35,000  Level Minneapolis Center
09:28PM 44.8819 -86.5669 99° East 449 517 35,000  Level Minneapolis Center
09:29PM 44.8600 -86.3594 98° East 447 514 35,000  Level Minneapolis Center
09:30PM 44.8419 -86.1878 98° East 446 513 35,000  Level Minneapolis Center
09:31PM 44.8219 -86.0158 99° East 445 512 35,000  Level Minneapolis Center
09:32PM 44.8025 -85.8456 99° East 443 510 35,000  Level Minneapolis Center
09:33PM 44.7831 -85.6767 99° East 439 505 35,000  Level Minneapolis Center
09:34PM 44.7617 -85.4944 99° East 441 507 35,000  Level Minneapolis Center
09:35PM 44.7419 -85.3250 99° East 442 509 35,000  Level Minneapolis Center
09:36PM 44.7208 -85.1567 100° East 439 505 35,000  Level Minneapolis Center
09:37PM 44.7008 -84.9867 99° East 440 506 35,000  Level Minneapolis Center
09:38PM 44.6764 -84.7842 100° East 440 506 35,000  Level Minneapolis Center
09:39PM 44.6556 -84.6172 100° East 437 503 35,000  Level Minneapolis Center
09:40PM 44.6347 -84.4483 100° East 438 504 35,000  Level Minneapolis Center
09:41PM 44.6122 -84.2800 101° East 441 507 35,000  Level Minneapolis Center
09:42PM 44.5894 -84.1122 101° East 439 505 35,000  Level Minneapolis Center
09:43PM 44.5642 -83.9111 100° East 438 504 35,000  Level Minneapolis Center
09:44PM 44.5408 -83.7444 101° East 437 503 35,000  Level Minneapolis Center
09:45PM 44.5144 -83.5439 100° East 437 503 35,000  Level Minneapolis Center
09:46PM 44.4933 -83.3744 100° East 440 506 35,000  Level Minneapolis Center
09:47PM 44.4700 -83.2064 101° East 441 507 35,000  Level Minneapolis Center
09:48PM 44.4458 -83.0375 101° East 442 509 35,000  Level Minneapolis Center
09:49PM 44.4219 -82.8711 101° East 440 506 35,000  Level Minneapolis Center
09:50PM 44.3994 -82.7031 101° East 441 507 35,000  Level Minneapolis Center
09:51PM 44.3667 -82.6000 114° Southeast 440 506 35,000  Level Toronto Center
09:52PM 44.3500 -82.4000 97° East 440 506 35,000  Level Toronto Center
09:53PM 44.3167 -82.2500 107° East 440 506 35,000  Level Toronto Center
09:54PM 44.2667 -82.1000 115° Southeast 440 506 35,000  Level Toronto Center
09:55PM 44.2333 -81.9333 106° East 440 506 35,000  Level Toronto Center
09:56PM 44.2000 -81.7667 106° East 440 506 35,000  Level Toronto Center
09:57PM 44.1667 -81.6167 107° East 440 506 35,000  Level Toronto Center
09:58PM 44.1167 -81.4500 113° Southeast 440 506 35,000  Level Toronto Center
09:59PM 44.0833 -81.3000 107° East 440 506 35,000  Level Toronto Center
10:00PM 44.0333 -81.1167 111° Southeast 440 506 35,000  Level Toronto Center
10:01PM 44.0000 -80.9833 109° East 430 495 35,000  Level Toronto Center
10:02PM 43.9667 -80.8167 105° East 440 506 35,000  Level Toronto Center
10:03PM 43.9333 -80.6500 105° East 440 506 35,000  Level Toronto Center
10:04PM 43.8833 -80.5167 117° Southeast 440 506 35,000  Level Toronto Center
10:05PM 43.8333 -80.3333 111° Southeast 440 506 35,000  Level Toronto Center
10:06PM 43.8000 -80.1833 107° East 440 506 35,000  Level Toronto Center
10:07PM 43.7500 -80.0333 115° Southeast 440 506 35,000  Level Toronto Center
10:08PM 43.7167 -79.8667 105° East 430 495 35,000  Level Toronto Center
10:09PM 43.6667 -79.7000 112° Southeast 440 506 35,000  Level Toronto Center
10:10PM 43.6333 -79.5333 105° East 430 495 35,000  Level Toronto Center
10:11PM 43.6167 -79.3833 99° East 440 506 35,000  Level Toronto Center
10:12PM 43.6000 -79.2167 98° East 430 495 35,000  Level Toronto Center
10:13PM 43.5833 -79.0500 98° East 430 495 35,000  Level Toronto Center
10:14PM 43.5500 -78.9000 107° East 430 495 35,000  Level Toronto Center
10:15PM 43.5333 -78.7167 97° East 430 495 35,000  Level Toronto Center
10:16PM 43.5167 -78.5833 100° East 440 506 35,000 -300 Level Toronto Center
10:17PM 43.4833 -78.4000 104° East 430 495 34,400 -720 Descending Toronto Center
10:18PM 43.4500 -78.2333 105° East 430 495 33,600 -960 Descending Toronto Center
10:19PM 43.4333 -78.0667 98° East 440 506 32,500 -1,200 Descending Toronto Center
10:20PM 43.4167 -77.9167 99° East 440 506 31,300 -1,200 Descending Toronto Center
10:21PM 43.4000 -77.7500 98° East 430 495 30,100 -1,200 Descending Toronto Center
10:22PM 43.3667 -77.5667 104° East 430 495 29,000 -600 Descending Toronto Center
10:23PM 43.3500 -77.4167 99° East 440 506 29,000  Level Toronto Center
10:24PM 43.3167 -77.2500 105° East 450 518 29,000  Level Toronto Center
10:25PM 43.2833 -77.0667 104° East 460 529 29,000  Level Toronto Center
10:26PM 43.2667 -76.8833 97° East 460 529 29,000  Level Toronto Center
10:27PM 43.2500 -76.7333 99° East 460 529 29,000  Level Toronto Center
10:28PM 43.2000 -76.5667 112° Southeast 460 529 29,000  Level Toronto Center
10:29PM 43.1833 -76.3833 97° East 460 529 29,000  Level Toronto Center
10:30PM 43.1667 -76.2333 99° East 470 541 29,000  Level Toronto Center
10:31PM 43.1167 -76.0500 110° East 470 541 29,000  Level Toronto Center
10:32PM 43.1000 -75.8667 97° East 460 529 29,000 -120 Level Toronto Center
10:33PM 43.0833 -75.6833 97° East 470 541 28,800 -1,260 Descending Toronto Center
10:34PM 43.0333 -75.5333 114° Southeast 460 529 26,500 -2,340 Descending Toronto Center
10:35PM 43.0167 -75.3667 98° East 430 495 24,200 -2,220 Descending Toronto Center
10:36PM 43.0000 -75.2167 99° East 410 472 22,100 -1,920 Descending Toronto Center
10:37PM 42.9928 -75.1767 104° East 412 474 21,100 -2,220 Descending Boston Center
10:38PM 42.9653 -75.0192 103° East 393 452 18,600 -2,160 Descending Boston Center
10:39PM 42.9411 -74.8850 104° East 377 434 16,800 -1,860 Descending Boston Center
10:40PM 42.9189 -74.7508 103° East 372 428 14,900 -1,800 Descending Boston Center
10:41PM 42.8983 -74.6339 103° East 354 407 13,200 -1,800 Descending Boston Center
10:42PM 42.8694 -74.4997 106° East 338 389 11,400 -1,560 Descending Boston Center
10:43PM 42.8314 -74.4078 119° Southeast 315 362 10,100 -1,440 Descending Boston Center
10:44PM 42.7953 -74.3244 121° Southeast 310 357 8,600 -1,740 Descending Boston Center
10:45PM 42.7431 -74.2097 122° Southeast 303 349 6,700 -1,800 Descending Boston Center
10:46PM 42.6967 -74.1069 122° Southeast 303 349 5,000 -1,500 Descending Boston Center
10:47PM 42.6603 -74.0267 122° Southeast 291 335 3,800 -780 Descending Boston Center
10:48PM 42.6239 -73.9411 120° Southeast 277 319 3,500 -300 Descending Boston Center
10:49PM 42.6189 -73.8508 94° East 254 292 3,300 -480 Descending Boston Center
10:49PM 42.6236 -73.8003 83° East 211 243 2,800 -1,020 Descending Boston Center